SAS511 ENBR-ENAL
Flight info
| Callsign | SAS511 |
|---|---|
| Flight time | 0h 33m |
| Altitude | 23000 |
| Route | OLDAS DCT TUMIM |
| Aircraft | A333/H-SDE3GHIJ2J3J5M1RVWXY/LB2D1 |
Departure
| Time | 2026-04-26 11:56 |
|---|---|
| Airport | Bergen Airport, Flesland (ENBR) |
Arrival
| Time | 2026-04-26 12:30 |
|---|---|
| Airport | Ålesund Airport (ENAL) |
| Time | Latitude | Longitude | Altitude | Speed | Heading |
|---|---|---|---|---|---|
| 2026-04-26 11:38 | 60.28819 | 5.22598 | 153 ft | 0 kts | 35° |
| 2026-04-26 11:46 | 60.28816 | 5.22594 | 153 ft | 1 kts | 35° |
| 2026-04-26 11:47 | 60.28811 | 5.22587 | 153 ft | 1 kts | 35° |
| 2026-04-26 11:47 | 60.28806 | 5.22580 | 153 ft | 2 kts | 35° |
| 2026-04-26 11:47 | 60.28794 | 5.22562 | 153 ft | 3 kts | 35° |
| 2026-04-26 11:47 | 60.28779 | 5.22540 | 153 ft | 3 kts | 36° |
| 2026-04-26 11:48 | 60.28764 | 5.22519 | 153 ft | 3 kts | 36° |
| 2026-04-26 11:48 | 60.28749 | 5.22498 | 153 ft | 3 kts | 36° |
| 2026-04-26 11:48 | 60.28734 | 5.22476 | 153 ft | 3 kts | 36° |
| 2026-04-26 11:48 | 60.28729 | 5.22469 | 153 ft | 0 kts | 36° |
| 2026-04-26 11:50 | 60.28730 | 5.22478 | 153 ft | 1 kts | 62° |
| 2026-04-26 11:50 | 60.28726 | 5.22493 | 153 ft | 1 kts | 116° |
| 2026-04-26 11:50 | 60.28713 | 5.22491 | 153 ft | 1 kts | 198° |
| 2026-04-26 11:50 | 60.28684 | 5.22426 | 152 ft | 10 kts | 230° |
| 2026-04-26 11:51 | 60.28604 | 5.22392 | 152 ft | 14 kts | 175° |
| 2026-04-26 11:51 | 60.28479 | 5.22423 | 151 ft | 22 kts | 171° |
| 2026-04-26 11:51 | 60.28319 | 5.22478 | 149 ft | 26 kts | 172° |
| 2026-04-26 11:51 | 60.28174 | 5.22527 | 148 ft | 20 kts | 170° |
| 2026-04-26 11:52 | 60.28065 | 5.22469 | 147 ft | 12 kts | 247° |
| 2026-04-26 11:52 | 60.28064 | 5.22458 | 147 ft | 0 kts | 252° |
| 2026-04-26 11:54 | 60.28063 | 5.22455 | 147 ft | 3 kts | 253° |
| 2026-04-26 11:54 | 60.28055 | 5.22387 | 146 ft | 11 kts | 258° |
| 2026-04-26 11:55 | 60.28093 | 5.22244 | 145 ft | 12 kts | 340° |
| 2026-04-26 11:55 | 60.28118 | 5.22232 | 145 ft | 0 kts | 347° |
| 2026-04-26 11:55 | 60.28141 | 5.22224 | 146 ft | 15 kts | 351° |
| 2026-04-26 11:56 | 60.28466 | 5.22110 | 152 ft | 82 kts | 351° |
| 2026-04-26 11:56 | 60.29248 | 5.21847 | 156 ft | 144 kts | 350° |
| 2026-04-26 11:56 | 60.30335 | 5.21491 | 620 ft | 165 kts | 349° |
| 2026-04-26 11:56 | 60.31474 | 5.21085 | 1471 ft | 168 kts | 349° |
| 2026-04-26 11:57 | 60.32678 | 5.20671 | 1992 ft | 192 kts | 350° |
| 2026-04-26 11:57 | 60.34117 | 5.20189 | 2383 ft | 224 kts | 350° |
| 2026-04-26 11:57 | 60.35743 | 5.19649 | 2767 ft | 251 kts | 350° |
| 2026-04-26 11:57 | 60.37501 | 5.19061 | 3557 ft | 259 kts | 350° |
| 2026-04-26 11:58 | 60.39289 | 5.18464 | 4475 ft | 262 kts | 350° |
| 2026-04-26 11:58 | 60.41103 | 5.17853 | 5241 ft | 265 kts | 350° |
| 2026-04-26 11:58 | 60.42941 | 5.17230 | 6127 ft | 270 kts | 350° |
| 2026-04-26 11:58 | 60.44808 | 5.16595 | 7102 ft | 273 kts | 350° |
| 2026-04-26 11:59 | 60.46694 | 5.15956 | 8064 ft | 276 kts | 350° |
| 2026-04-26 11:59 | 60.48605 | 5.15331 | 8994 ft | 280 kts | 352° |
| 2026-04-26 11:59 | 60.50568 | 5.15111 | 9897 ft | 284 kts | 359° |
| 2026-04-26 11:59 | 60.52584 | 5.15142 | 10546 ft | 299 kts | 0° |
| 2026-04-26 12:00 | 60.54746 | 5.15227 | 10879 ft | 323 kts | 1° |
| 2026-04-26 12:00 | 60.57054 | 5.15323 | 11381 ft | 338 kts | 1° |
| 2026-04-26 12:00 | 60.59403 | 5.15415 | 12124 ft | 344 kts | 1° |
| 2026-04-26 12:00 | 60.61809 | 5.15505 | 12927 ft | 349 kts | 0° |
| 2026-04-26 12:01 | 60.64251 | 5.15595 | 13714 ft | 353 kts | 0° |
| 2026-04-26 12:01 | 60.66730 | 5.15684 | 14488 ft | 357 kts | 0° |
| 2026-04-26 12:01 | 60.69229 | 5.15774 | 15248 ft | 361 kts | 0° |
| 2026-04-26 12:01 | 60.71753 | 5.15864 | 15983 ft | 365 kts | 0° |
| 2026-04-26 12:02 | 60.74309 | 5.15955 | 16705 ft | 369 kts | 0° |
| 2026-04-26 12:02 | 60.76022 | 5.16016 | 17176 ft | 372 kts | 0° |
| 2026-04-26 12:02 | 60.79507 | 5.16140 | 18088 ft | 377 kts | 0° |
| 2026-04-26 12:02 | 60.82147 | 5.16234 | 18753 ft | 381 kts | 0° |
| 2026-04-26 12:03 | 60.84810 | 5.16330 | 19391 ft | 385 kts | 0° |
| 2026-04-26 12:03 | 60.87501 | 5.16425 | 20013 ft | 389 kts | 0° |
| 2026-04-26 12:03 | 60.90218 | 5.16524 | 20608 ft | 393 kts | 1° |
| 2026-04-26 12:03 | 60.92967 | 5.16624 | 21174 ft | 397 kts | 1° |
| 2026-04-26 12:04 | 60.95742 | 5.16723 | 21752 ft | 400 kts | 1° |
| 2026-04-26 12:04 | 60.98547 | 5.16824 | 22323 ft | 403 kts | 1° |
| 2026-04-26 12:04 | 61.01359 | 5.16925 | 22802 ft | 406 kts | 1° |
| 2026-04-26 12:04 | 61.04189 | 5.17040 | 22981 ft | 409 kts | 2° |
| 2026-04-26 12:05 | 61.06977 | 5.17803 | 22998 ft | 410 kts | 15° |
| 2026-04-26 12:05 | 61.09619 | 5.19986 | 23001 ft | 409 kts | 26° |
| 2026-04-26 12:05 | 61.12128 | 5.22729 | 23001 ft | 409 kts | 28° |
| 2026-04-26 12:05 | 61.14629 | 5.25585 | 22999 ft | 409 kts | 28° |
| 2026-04-26 12:06 | 61.17121 | 5.28438 | 22999 ft | 410 kts | 28° |
| 2026-04-26 12:06 | 61.19616 | 5.31287 | 23000 ft | 409 kts | 28° |
| 2026-04-26 12:06 | 61.22115 | 5.34138 | 22999 ft | 410 kts | 28° |
| 2026-04-26 12:06 | 61.24615 | 5.36989 | 23001 ft | 410 kts | 28° |
| 2026-04-26 12:07 | 61.27116 | 5.39843 | 23000 ft | 410 kts | 28° |
| 2026-04-26 12:07 | 61.29613 | 5.42697 | 23000 ft | 410 kts | 28° |
| 2026-04-26 12:07 | 61.32122 | 5.45567 | 23000 ft | 411 kts | 28° |
| 2026-04-26 12:07 | 61.34625 | 5.48436 | 23000 ft | 411 kts | 28° |
| 2026-04-26 12:08 | 61.37134 | 5.51316 | 23000 ft | 411 kts | 28° |
| 2026-04-26 12:08 | 61.39604 | 5.54157 | 23000 ft | 410 kts | 28° |
| 2026-04-26 12:08 | 61.42139 | 5.57077 | 23000 ft | 412 kts | 28° |
| 2026-04-26 12:08 | 61.44651 | 5.59977 | 23000 ft | 413 kts | 28° |
| 2026-04-26 12:09 | 61.47129 | 5.62843 | 23001 ft | 410 kts | 28° |
| 2026-04-26 12:09 | 61.49631 | 5.65742 | 23002 ft | 409 kts | 28° |
| 2026-04-26 12:09 | 61.52124 | 5.68635 | 23000 ft | 410 kts | 28° |
| 2026-04-26 12:09 | 61.54624 | 5.71542 | 23000 ft | 411 kts | 28° |
| 2026-04-26 12:10 | 61.57124 | 5.74455 | 23000 ft | 412 kts | 28° |
| 2026-04-26 12:10 | 61.59634 | 5.77385 | 23000 ft | 411 kts | 29° |
| 2026-04-26 12:10 | 61.62141 | 5.80317 | 23000 ft | 413 kts | 29° |
| 2026-04-26 12:10 | 61.64655 | 5.83262 | 22980 ft | 414 kts | 29° |
| 2026-04-26 12:11 | 61.67191 | 5.86239 | 22477 ft | 420 kts | 29° |
| 2026-04-26 12:11 | 61.69749 | 5.89247 | 21715 ft | 417 kts | 29° |
| 2026-04-26 12:11 | 61.72222 | 5.92127 | 21085 ft | 403 kts | 27° |
| 2026-04-26 12:11 | 61.74758 | 5.94702 | 20582 ft | 397 kts | 24° |
| 2026-04-26 12:12 | 61.77257 | 5.97098 | 20068 ft | 392 kts | 24° |
| 2026-04-26 12:12 | 61.79734 | 5.99460 | 19567 ft | 389 kts | 24° |
| 2026-04-26 12:12 | 61.82146 | 6.01780 | 19148 ft | 384 kts | 24° |
| 2026-04-26 12:12 | 61.83784 | 6.03364 | 18840 ft | 382 kts | 24° |
| 2026-04-26 12:13 | 61.86965 | 6.06447 | 18171 ft | 377 kts | 24° |
| 2026-04-26 12:13 | 61.89344 | 6.08757 | 17681 ft | 375 kts | 24° |
| 2026-04-26 12:13 | 61.91708 | 6.11056 | 17188 ft | 372 kts | 24° |
| 2026-04-26 12:13 | 61.94054 | 6.13342 | 16696 ft | 369 kts | 24° |
| 2026-04-26 12:14 | 61.96381 | 6.15613 | 16208 ft | 367 kts | 24° |
| 2026-04-26 12:14 | 61.98697 | 6.17878 | 15720 ft | 364 kts | 24° |
| 2026-04-26 12:14 | 62.00991 | 6.20124 | 15234 ft | 362 kts | 24° |
| 2026-04-26 12:14 | 62.03272 | 6.22361 | 14745 ft | 360 kts | 24° |
| 2026-04-26 12:15 | 62.05542 | 6.24590 | 14278 ft | 357 kts | 24° |
| 2026-04-26 12:15 | 62.07788 | 6.26801 | 13783 ft | 354 kts | 24° |
| 2026-04-26 12:15 | 62.10006 | 6.28987 | 13314 ft | 351 kts | 24° |
| 2026-04-26 12:15 | 62.12219 | 6.31169 | 12839 ft | 348 kts | 24° |
| 2026-04-26 12:16 | 62.14409 | 6.33335 | 12362 ft | 346 kts | 24° |
| 2026-04-26 12:16 | 62.16588 | 6.35493 | 11883 ft | 343 kts | 24° |
| 2026-04-26 12:16 | 62.18747 | 6.37635 | 11445 ft | 340 kts | 24° |
| 2026-04-26 12:16 | 62.20845 | 6.39719 | 11332 ft | 324 kts | 24° |
| 2026-04-26 12:17 | 62.22816 | 6.41680 | 11248 ft | 309 kts | 24° |
| 2026-04-26 12:17 | 62.24735 | 6.43593 | 11125 ft | 298 kts | 25° |
| 2026-04-26 12:17 | 62.26586 | 6.45441 | 10968 ft | 289 kts | 24° |
| 2026-04-26 12:17 | 62.28393 | 6.47246 | 10687 ft | 286 kts | 25° |
| 2026-04-26 12:18 | 62.30206 | 6.49061 | 10320 ft | 288 kts | 25° |
| 2026-04-26 12:18 | 62.32020 | 6.50880 | 9988 ft | 287 kts | 25° |
| 2026-04-26 12:18 | 62.33831 | 6.52695 | 9659 ft | 287 kts | 25° |
| 2026-04-26 12:18 | 62.35637 | 6.54507 | 9332 ft | 285 kts | 25° |
| 2026-04-26 12:19 | 62.37432 | 6.56312 | 8999 ft | 284 kts | 25° |
| 2026-04-26 12:19 | 62.39219 | 6.58111 | 8668 ft | 282 kts | 25° |
| 2026-04-26 12:19 | 62.40993 | 6.59901 | 8344 ft | 281 kts | 25° |
| 2026-04-26 12:19 | 62.42762 | 6.61686 | 8009 ft | 280 kts | 25° |
| 2026-04-26 12:20 | 62.44502 | 6.63445 | 7677 ft | 278 kts | 25° |
| 2026-04-26 12:20 | 62.46248 | 6.65213 | 7354 ft | 277 kts | 25° |
| 2026-04-26 12:20 | 62.47990 | 6.66978 | 7030 ft | 275 kts | 25° |
| 2026-04-26 12:20 | 62.49715 | 6.68728 | 6813 ft | 269 kts | 25° |
| 2026-04-26 12:21 | 62.50820 | 6.69851 | 6768 ft | 261 kts | 25° |
| 2026-04-26 12:21 | 62.52957 | 6.72026 | 6629 ft | 247 kts | 25° |
| 2026-04-26 12:21 | 62.54488 | 6.73586 | 6445 ft | 242 kts | 25° |
| 2026-04-26 12:21 | 62.55491 | 6.74609 | 6327 ft | 239 kts | 25° |
| 2026-04-26 12:22 | 62.57054 | 6.75930 | 5926 ft | 243 kts | 12° |
| 2026-04-26 12:22 | 62.58738 | 6.75866 | 5519 ft | 247 kts | 343° |
| 2026-04-26 12:22 | 62.60326 | 6.74541 | 5249 ft | 244 kts | 335° |
| 2026-04-26 12:22 | 62.61867 | 6.72975 | 4985 ft | 242 kts | 334° |
| 2026-04-26 12:23 | 62.63396 | 6.71391 | 4714 ft | 242 kts | 334° |
| 2026-04-26 12:23 | 62.64903 | 6.69821 | 4450 ft | 240 kts | 332° |
| 2026-04-26 12:23 | 62.66218 | 6.67654 | 4146 ft | 239 kts | 306° |
| 2026-04-26 12:23 | 62.66767 | 6.64313 | 3877 ft | 235 kts | 275° |
| 2026-04-26 12:24 | 62.66704 | 6.60775 | 3612 ft | 235 kts | 259° |
| 2026-04-26 12:24 | 62.66201 | 6.57449 | 3379 ft | 234 kts | 245° |
| 2026-04-26 12:24 | 62.65490 | 6.54312 | 3212 ft | 227 kts | 244° |
| 2026-04-26 12:25 | 62.64170 | 6.48399 | 3085 ft | 205 kts | 244° |
| 2026-04-26 12:25 | 62.63571 | 6.45683 | 3019 ft | 192 kts | 245° |
| 2026-04-26 12:25 | 62.63018 | 6.43151 | 2931 ft | 180 kts | 245° |
| 2026-04-26 12:25 | 62.62504 | 6.40771 | 2848 ft | 166 kts | 245° |
| 2026-04-26 12:26 | 62.62035 | 6.38578 | 2665 ft | 154 kts | 245° |
| 2026-04-26 12:26 | 62.61596 | 6.36550 | 2451 ft | 143 kts | 245° |
| 2026-04-26 12:26 | 62.61186 | 6.34671 | 2253 ft | 134 kts | 245° |
| 2026-04-26 12:26 | 62.60791 | 6.32854 | 2070 ft | 133 kts | 245° |
| 2026-04-26 12:27 | 62.60403 | 6.31063 | 1884 ft | 132 kts | 245° |
| 2026-04-26 12:27 | 62.60009 | 6.29252 | 1724 ft | 132 kts | 245° |
| 2026-04-26 12:27 | 62.59615 | 6.27445 | 1551 ft | 132 kts | 245° |
| 2026-04-26 12:27 | 62.59222 | 6.25640 | 1372 ft | 132 kts | 245° |
| 2026-04-26 12:28 | 62.58833 | 6.23836 | 1179 ft | 132 kts | 244° |
| 2026-04-26 12:28 | 62.58456 | 6.22041 | 1071 ft | 131 kts | 244° |
| 2026-04-26 12:28 | 62.58063 | 6.20253 | 923 ft | 132 kts | 245° |
| 2026-04-26 12:28 | 62.57682 | 6.18449 | 697 ft | 131 kts | 245° |
| 2026-04-26 12:29 | 62.57300 | 6.16668 | 527 ft | 130 kts | 244° |
| 2026-04-26 12:29 | 62.56896 | 6.14902 | 323 ft | 130 kts | 244° |
| 2026-04-26 12:29 | 62.56139 | 6.11452 | 68 ft | 110 kts | 245° |
| 2026-04-26 12:30 | 62.55972 | 6.10735 | 62 ft | 15 kts | 202° |
| 2026-04-26 12:30 | 62.55949 | 6.10759 | 65 ft | 3 kts | 128° |
| 2026-04-26 12:30 | 62.55933 | 6.10808 | 62 ft | 5 kts | 119° |
| 2026-04-26 12:31 | 62.55905 | 6.11012 | 65 ft | 9 kts | 104° |
| 2026-04-26 12:31 | 62.55905 | 6.11142 | 66 ft | 9 kts | 75° |
| 2026-04-26 12:31 | 62.55908 | 6.11234 | 62 ft | 3 kts | 110° |
| 2026-04-26 12:31 | 62.55898 | 6.11279 | 62 ft | 3 kts | 127° |
| 2026-04-26 12:32 | 62.55896 | 6.11283 | 62 ft | 1 kts | 132° |
| 2026-04-26 12:32 | 62.55880 | 6.11298 | 62 ft | 0 kts | 153° |